sensor_id;sensor_type;location;lat;lon;timestamp;P1;durP1;ratioP1;P2;durP2;ratioP2
52396;SDS011;38322;53.108;6.308;2024-01-07T06:02:12;5.43;;;1.30;;
52396;SDS011;38322;53.108;6.308;2024-01-07T06:04:38;4.00;;;0.70;;
52396;SDS011;38322;53.108;6.308;2024-01-07T06:07:04;2.38;;;1.05;;
52396;SDS011;38322;53.108;6.308;2024-01-07T06:09:29;1.73;;;0.98;;
52396;SDS011;38322;53.108;6.308;2024-01-07T06:11:55;6.10;;;1.50;;
52396;SDS011;38322;53.108;6.308;2024-01-07T06:14:22;4.18;;;1.02;;
52396;SDS011;38322;53.108;6.308;2024-01-07T06:16:48;4.20;;;0.73;;
52396;SDS011;38322;53.108;6.308;2024-01-07T06:19:16;2.00;;;1.02;;
52396;SDS011;38322;53.108;6.308;2024-01-07T06:21:42;3.85;;;0.98;;
52396;SDS011;38322;53.108;6.308;2024-01-07T06:24:08;3.80;;;1.17;;
52396;SDS011;38322;53.108;6.308;2024-01-07T06:26:34;1.70;;;1.17;;
52396;SDS011;38322;53.108;6.308;2024-01-07T06:29:00;5.13;;;2.17;;
52396;SDS011;38322;53.108;6.308;2024-01-07T06:31:26;2.13;;;1.42;;
52396;SDS011;38322;53.108;6.308;2024-01-07T06:33:52;2.50;;;0.93;;
52396;SDS011;38322;53.108;6.308;2024-01-07T06:36:20;3.70;;;0.65;;
52396;SDS011;38322;53.108;6.308;2024-01-07T06:38:47;4.88;;;0.85;;
52396;SDS011;38322;53.108;6.308;2024-01-07T06:41:14;2.35;;;1.05;;
52396;SDS011;38322;53.108;6.308;2024-01-07T06:43:39;3.22;;;0.65;;
52396;SDS011;38322;53.108;6.308;2024-01-07T06:46:05;2.53;;;1.48;;
52396;SDS011;38322;53.108;6.308;2024-01-07T06:48:31;3.22;;;0.95;;
52396;SDS011;38322;53.108;6.308;2024-01-07T06:50:57;4.32;;;0.85;;
52396;SDS011;38322;53.108;6.308;2024-01-07T06:53:23;2.20;;;0.68;;
52396;SDS011;38322;53.108;6.308;2024-01-07T06:55:49;1.67;;;0.68;;
52396;SDS011;38322;53.108;6.308;2024-01-07T06:58:15;3.83;;;0.60;;
52396;SDS011;38322;53.108;6.308;2024-01-07T07:00:41;3.83;;;0.88;;
52396;SDS011;38322;53.108;6.308;2024-01-07T07:03:07;1.00;;;0.40;;
52396;SDS011;38322;53.108;6.308;2024-01-07T07:05:34;1.52;;;0.50;;
52396;SDS011;38322;53.108;6.308;2024-01-07T07:07:59;1.52;;;0.80;;
52396;SDS011;38322;53.108;6.308;2024-01-07T07:10:26;1.27;;;0.80;;
52396;SDS011;38322;53.108;6.308;2024-01-07T07:12:52;2.58;;;0.57;;
52396;SDS011;38322;53.108;6.308;2024-01-07T07:15:18;2.25;;;0.80;;
52396;SDS011;38322;53.108;6.308;2024-01-07T07:17:44;5.60;;;0.63;;
52396;SDS011;38322;53.108;6.308;2024-01-07T07:20:10;3.70;;;1.20;;
52396;SDS011;38322;53.108;6.308;2024-01-07T07:22:36;2.00;;;0.50;;
52396;SDS011;38322;53.108;6.308;2024-01-07T07:25:02;2.90;;;0.93;;
52396;SDS011;38322;53.108;6.308;2024-01-07T07:27:28;3.05;;;0.77;;
52396;SDS011;38322;53.108;6.308;2024-01-07T07:29:54;4.28;;;2.10;;
52396;SDS011;38322;53.108;6.308;2024-01-07T07:32:20;3.25;;;1.00;;
52396;SDS011;38322;53.108;6.308;2024-01-07T07:34:46;3.50;;;1.10;;
52396;SDS011;38322;53.108;6.308;2024-01-07T07:37:12;2.58;;;0.82;;
52396;SDS011;38322;53.108;6.308;2024-01-07T07:39:38;1.42;;;0.60;;
52396;SDS011;38322;53.108;6.308;2024-01-07T07:42:04;2.78;;;1.08;;
52396;SDS011;38322;53.108;6.308;2024-01-07T07:44:30;1.55;;;0.57;;
52396;SDS011;38322;53.108;6.308;2024-01-07T07:46:56;2.03;;;0.55;;
52396;SDS011;38322;53.108;6.308;2024-01-07T07:49:22;1.85;;;0.65;;
52396;SDS011;38322;53.108;6.308;2024-01-07T07:51:48;5.80;;;1.05;;
52396;SDS011;38322;53.108;6.308;2024-01-07T07:54:14;2.15;;;0.95;;
52396;SDS011;38322;53.108;6.308;2024-01-07T07:56:40;1.90;;;0.80;;
52396;SDS011;38322;53.108;6.308;2024-01-07T07:59:05;1.80;;;1.10;;
52396;SDS011;38322;53.108;6.308;2024-01-07T08:01:34;3.53;;;0.80;;
52396;SDS011;38322;53.108;6.308;2024-01-07T08:04:00;2.70;;;0.68;;
52396;SDS011;38322;53.108;6.308;2024-01-07T08:06:27;1.88;;;0.80;;
52396;SDS011;38322;53.108;6.308;2024-01-07T08:08:54;1.70;;;1.05;;
52396;SDS011;38322;53.108;6.308;2024-01-07T08:11:20;3.85;;;0.63;;
52396;SDS011;38322;53.108;6.308;2024-01-07T08:13:46;1.17;;;0.40;;
52396;SDS011;38322;53.108;6.308;2024-01-07T08:16:12;1.88;;;1.30;;
52396;SDS011;38322;53.108;6.308;2024-01-07T08:18:39;3.08;;;0.75;;
52396;SDS011;38322;53.108;6.308;2024-01-07T08:21:05;2.92;;;0.55;;
52396;SDS011;38322;53.108;6.308;2024-01-07T08:23:31;1.60;;;0.60;;
52396;SDS011;38322;53.108;6.308;2024-01-07T08:25:57;2.58;;;1.00;;
52396;SDS011;38322;53.108;6.308;2024-01-07T08:28:23;1.80;;;1.40;;
52396;SDS011;38322;53.108;6.308;2024-01-07T08:30:49;2.65;;;0.60;;
52396;SDS011;38322;53.108;6.308;2024-01-07T08:33:16;1.50;;;1.10;;
52396;SDS011;38322;53.108;6.308;2024-01-07T08:35:43;4.55;;;1.05;;
52396;SDS011;38322;53.108;6.308;2024-01-07T08:38:09;1.50;;;0.55;;
52396;SDS011;38322;53.108;6.308;2024-01-07T08:40:35;1.92;;;0.98;;
52396;SDS011;38322;53.108;6.308;2024-01-07T08:43:01;1.88;;;1.38;;
52396;SDS011;38322;53.108;6.308;2024-01-07T08:45:27;1.15;;;0.68;;
52396;SDS011;38322;53.108;6.308;2024-01-07T08:47:54;2.65;;;0.70;;
52396;SDS011;38322;53.108;6.308;2024-01-07T08:50:19;2.10;;;1.20;;
52396;SDS011;38322;53.108;6.308;2024-01-07T08:52:46;3.92;;;0.63;;
52396;SDS011;38322;53.108;6.308;2024-01-07T08:55:12;1.52;;;0.82;;
52396;SDS011;38322;53.108;6.308;2024-01-07T08:57:38;1.60;;;0.88;;
52396;SDS011;38322;53.108;6.308;2024-01-07T09:00:04;4.35;;;1.00;;
52396;SDS011;38322;53.108;6.308;2024-01-07T09:02:33;2.80;;;0.82;;
52396;SDS011;38322;53.108;6.308;2024-01-07T09:04:59;3.65;;;0.73;;
52396;SDS011;38322;53.108;6.308;2024-01-07T09:07:24;3.90;;;1.08;;
52396;SDS011;38322;53.108;6.308;2024-01-07T09:09:50;1.85;;;0.95;;
52396;SDS011;38322;53.108;6.308;2024-01-07T09:12:16;3.17;;;0.98;;
52396;SDS011;38322;53.108;6.308;2024-01-07T09:14:42;3.60;;;0.65;;
52396;SDS011;38322;53.108;6.308;2024-01-07T09:17:08;1.88;;;1.27;;
52396;SDS011;38322;53.108;6.308;2024-01-07T09:19:34;3.10;;;0.70;;
52396;SDS011;38322;53.108;6.308;2024-01-07T09:22:00;2.05;;;0.80;;
52396;SDS011;38322;53.108;6.308;2024-01-07T09:24:25;2.80;;;1.05;;
52396;SDS011;38322;53.108;6.308;2024-01-07T09:26:51;3.17;;;1.70;;
52396;SDS011;38322;53.108;6.308;2024-01-07T09:29:17;1.60;;;0.57;;
52396;SDS011;38322;53.108;6.308;2024-01-07T09:31:43;1.60;;;0.90;;
52396;SDS011;38322;53.108;6.308;2024-01-07T09:34:09;3.88;;;1.35;;
52396;SDS011;38322;53.108;6.308;2024-01-07T09:36:35;3.38;;;1.10;;
52396;SDS011;38322;53.108;6.308;2024-01-07T09:39:01;1.42;;;1.10;;
52396;SDS011;38322;53.108;6.308;2024-01-07T09:41:30;6.90;;;0.90;;
52396;SDS011;38322;53.108;6.308;2024-01-07T09:43:56;3.30;;;0.73;;
52396;SDS011;38322;53.108;6.308;2024-01-07T09:46:24;4.65;;;1.10;;
52396;SDS011;38322;53.108;6.308;2024-01-07T09:48:51;1.25;;;0.40;;
52396;SDS011;38322;53.108;6.308;2024-01-07T09:51:17;1.95;;;0.52;;
52396;SDS011;38322;53.108;6.308;2024-01-07T09:53:47;4.28;;;0.65;;
52396;SDS011;38322;53.108;6.308;2024-01-07T09:56:18;6.70;;;0.80;;
52396;SDS011;38322;53.108;6.308;2024-01-07T09:58:48;4.22;;;0.65;;
52396;SDS011;38322;53.108;6.308;2024-01-07T10:01:17;1.05;;;0.50;;
52396;SDS011;38322;53.108;6.308;2024-01-07T10:03:43;3.25;;;1.35;;
52396;SDS011;38322;53.108;6.308;2024-01-07T10:06:10;2.53;;;0.80;;
52396;SDS011;38322;53.108;6.308;2024-01-07T10:08:37;2.05;;;0.50;;
52396;SDS011;38322;53.108;6.308;2024-01-07T10:11:03;1.45;;;0.60;;
52396;SDS011;38322;53.108;6.308;2024-01-07T10:13:30;7.50;;;1.80;;
52396;SDS011;38322;53.108;6.308;2024-01-07T10:15:57;3.45;;;1.30;;
52396;SDS011;38322;53.108;6.308;2024-01-07T10:18:23;2.75;;;1.10;;
52396;SDS011;38322;53.108;6.308;2024-01-07T10:20:50;3.22;;;1.00;;
52396;SDS011;38322;53.108;6.308;2024-01-07T10:23:20;2.10;;;0.90;;
52396;SDS011;38322;53.108;6.308;2024-01-07T10:25:46;1.65;;;0.88;;
52396;SDS011;38322;53.108;6.308;2024-01-07T10:28:12;1.88;;;0.73;;
52396;SDS011;38322;53.108;6.308;2024-01-07T10:30:39;3.03;;;1.77;;
52396;SDS011;38322;53.108;6.308;2024-01-07T10:33:05;1.40;;;0.68;;
52396;SDS011;38322;53.108;6.308;2024-01-07T10:35:34;2.95;;;1.05;;
52396;SDS011;38322;53.108;6.308;2024-01-07T10:38:02;3.38;;;1.30;;
52396;SDS011;38322;53.108;6.308;2024-01-07T10:40:29;1.38;;;0.88;;
52396;SDS011;38322;53.108;6.308;2024-01-07T10:42:56;1.75;;;0.80;;
52396;SDS011;38322;53.108;6.308;2024-01-07T10:45:23;2.80;;;0.63;;
52396;SDS011;38322;53.108;6.308;2024-01-07T10:47:49;2.60;;;0.82;;
52396;SDS011;38322;53.108;6.308;2024-01-07T10:50:16;2.20;;;1.00;;
52396;SDS011;38322;53.108;6.308;2024-01-07T10:52:43;3.17;;;0.90;;
52396;SDS011;38322;53.108;6.308;2024-01-07T10:55:17;6.45;;;1.08;;
52396;SDS011;38322;53.108;6.308;2024-01-07T10:57:44;3.17;;;1.10;;
52396;SDS011;38322;53.108;6.308;2024-01-07T11:00:13;3.50;;;0.98;;
52396;SDS011;38322;53.108;6.308;2024-01-07T11:02:52;4.25;;;1.88;;
52396;SDS011;38322;53.108;6.308;2024-01-07T11:05:28;3.45;;;1.27;;
52396;SDS011;38322;53.108;6.308;2024-01-07T11:08:05;4.10;;;1.45;;
52396;SDS011;38322;53.108;6.308;2024-01-07T11:10:41;1.60;;;0.75;;
52396;SDS011;38322;53.108;6.308;2024-01-07T11:13:32;4.65;;;1.70;;
52396;SDS011;38322;53.108;6.308;2024-01-07T11:16:01;1.17;;;0.90;;
52396;SDS011;38322;53.108;6.308;2024-01-07T11:18:28;3.38;;;1.20;;
52396;SDS011;38322;53.108;6.308;2024-01-07T11:21:00;1.75;;;0.77;;
52396;SDS011;38322;53.108;6.308;2024-01-07T11:25:56;3.15;;;0.80;;
52396;SDS011;38322;53.108;6.308;2024-01-07T11:31:07;2.70;;;0.80;;
52396;SDS011;38322;53.108;6.308;2024-01-07T11:33:36;4.90;;;3.10;;
52396;SDS011;38322;53.108;6.308;2024-01-07T11:36:03;2.78;;;1.13;;
52396;SDS011;38322;53.108;6.308;2024-01-07T11:38:30;3.25;;;0.80;;
52396;SDS011;38322;53.108;6.308;2024-01-07T11:40:56;1.88;;;0.82;;
52396;SDS011;38322;53.108;6.308;2024-01-07T11:43:24;1.95;;;0.85;;
52396;SDS011;38322;53.108;6.308;2024-01-07T11:45:50;2.63;;;0.90;;
52396;SDS011;38322;53.108;6.308;2024-01-07T11:48:17;6.28;;;1.75;;
52396;SDS011;38322;53.108;6.308;2024-01-07T11:50:44;2.58;;;1.15;;
52396;SDS011;38322;53.108;6.308;2024-01-07T11:53:11;12.88;;;2.03;;
52396;SDS011;38322;53.108;6.308;2024-01-07T11:55:38;5.28;;;1.10;;
52396;SDS011;38322;53.108;6.308;2024-01-07T11:58:04;4.97;;;1.40;;
52396;SDS011;38322;53.108;6.308;2024-01-07T12:00:31;2.10;;;1.10;;
52396;SDS011;38322;53.108;6.308;2024-01-07T12:03:00;2.67;;;1.30;;
52396;SDS011;38322;53.108;6.308;2024-01-07T12:05:27;5.82;;;1.70;;
52396;SDS011;38322;53.108;6.308;2024-01-07T12:07:53;3.30;;;1.48;;
52396;SDS011;38322;53.108;6.308;2024-01-07T12:10:19;5.72;;;1.80;;
52396;SDS011;38322;53.108;6.308;2024-01-07T12:12:46;3.78;;;1.42;;
52396;SDS011;38322;53.108;6.308;2024-01-07T12:15:12;6.53;;;2.15;;
52396;SDS011;38322;53.108;6.308;2024-01-07T12:17:39;4.70;;;1.67;;
52396;SDS011;38322;53.108;6.308;2024-01-07T12:20:05;4.82;;;1.75;;
52396;SDS011;38322;53.108;6.308;2024-01-07T12:22:37;6.78;;;2.03;;
52396;SDS011;38322;53.108;6.308;2024-01-07T12:25:04;5.97;;;1.90;;
52396;SDS011;38322;53.108;6.308;2024-01-07T12:27:31;5.53;;;2.67;;
52396;SDS011;38322;53.108;6.308;2024-01-07T12:29:58;5.65;;;2.15;;
52396;SDS011;38322;53.108;6.308;2024-01-07T12:32:30;6.88;;;2.83;;
52396;SDS011;38322;53.108;6.308;2024-01-07T12:34:57;4.30;;;2.15;;
52396;SDS011;38322;53.108;6.308;2024-01-07T12:37:26;4.47;;;3.28;;
52396;SDS011;38322;53.108;6.308;2024-01-07T12:39:52;2.72;;;2.00;;
52396;SDS011;38322;53.108;6.308;2024-01-07T12:42:19;4.05;;;2.42;;
52396;SDS011;38322;53.108;6.308;2024-01-07T12:44:47;3.35;;;3.05;;
52396;SDS011;38322;53.108;6.308;2024-01-07T12:47:14;5.88;;;2.50;;
52396;SDS011;38322;53.108;6.308;2024-01-07T12:49:40;4.05;;;2.85;;
52396;SDS011;38322;53.108;6.308;2024-01-07T12:52:06;4.35;;;2.47;;
52396;SDS011;38322;53.108;6.308;2024-01-07T12:54:32;6.50;;;3.17;;
52396;SDS011;38322;53.108;6.308;2024-01-07T12:56:59;3.97;;;2.30;;
52396;SDS011;38322;53.108;6.308;2024-01-07T12:59:25;6.03;;;2.90;;
52396;SDS011;38322;53.108;6.308;2024-01-07T13:01:51;6.00;;;3.92;;
52396;SDS011;38322;53.108;6.308;2024-01-07T13:04:18;4.53;;;3.60;;
52396;SDS011;38322;53.108;6.308;2024-01-07T13:06:45;6.88;;;3.08;;
52396;SDS011;38322;53.108;6.308;2024-01-07T13:09:11;3.88;;;2.03;;
52396;SDS011;38322;53.108;6.308;2024-01-07T13:11:37;7.38;;;2.95;;
52396;SDS011;38322;53.108;6.308;2024-01-07T13:14:03;3.97;;;2.80;;
52396;SDS011;38322;53.108;6.308;2024-01-07T13:16:29;5.22;;;2.85;;
52396;SDS011;38322;53.108;6.308;2024-01-07T13:18:55;6.50;;;2.15;;
52396;SDS011;38322;53.108;6.308;2024-01-07T13:21:21;7.55;;;3.15;;
52396;SDS011;38322;53.108;6.308;2024-01-07T13:23:47;6.22;;;2.30;;
52396;SDS011;38322;53.108;6.308;2024-01-07T13:26:13;4.80;;;2.28;;
52396;SDS011;38322;53.108;6.308;2024-01-07T13:28:40;5.80;;;2.65;;
52396;SDS011;38322;53.108;6.308;2024-01-07T13:31:06;6.10;;;3.53;;
52396;SDS011;38322;53.108;6.308;2024-01-07T13:33:33;5.63;;;3.38;;
52396;SDS011;38322;53.108;6.308;2024-01-07T13:35:59;4.18;;;2.40;;
52396;SDS011;38322;53.108;6.308;2024-01-07T13:38:25;6.50;;;2.53;;
52396;SDS011;38322;53.108;6.308;2024-01-07T13:40:51;5.25;;;3.53;;
52396;SDS011;38322;53.108;6.308;2024-01-07T13:43:17;8.65;;;3.30;;
52396;SDS011;38322;53.108;6.308;2024-01-07T13:45:43;4.53;;;2.13;;
52396;SDS011;38322;53.108;6.308;2024-01-07T13:48:09;3.97;;;2.53;;
52396;SDS011;38322;53.108;6.308;2024-01-07T13:50:35;5.25;;;2.40;;
52396;SDS011;38322;53.108;6.308;2024-01-07T13:53:01;2.70;;;1.92;;
52396;SDS011;38322;53.108;6.308;2024-01-07T13:55:28;3.03;;;1.92;;
52396;SDS011;38322;53.108;6.308;2024-01-07T13:57:53;5.70;;;2.58;;
52396;SDS011;38322;53.108;6.308;2024-01-07T14:00:21;4.10;;;2.60;;
52396;SDS011;38322;53.108;6.308;2024-01-07T14:02:47;4.60;;;2.90;;
52396;SDS011;38322;53.108;6.308;2024-01-07T14:05:16;7.50;;;3.22;;
52396;SDS011;38322;53.108;6.308;2024-01-07T14:07:42;7.25;;;4.35;;
52396;SDS011;38322;53.108;6.308;2024-01-07T14:10:08;8.27;;;3.63;;
52396;SDS011;38322;53.108;6.308;2024-01-07T14:12:34;5.80;;;3.60;;
52396;SDS011;38322;53.108;6.308;2024-01-07T14:15:00;4.57;;;3.10;;
52396;SDS011;38322;53.108;6.308;2024-01-07T14:17:26;5.78;;;3.10;;
52396;SDS011;38322;53.108;6.308;2024-01-07T14:19:52;5.82;;;2.65;;
52396;SDS011;38322;53.108;6.308;2024-01-07T14:22:20;4.70;;;3.22;;
52396;SDS011;38322;53.108;6.308;2024-01-07T14:24:46;4.28;;;2.92;;
52396;SDS011;38322;53.108;6.308;2024-01-07T14:27:13;7.03;;;3.50;;
52396;SDS011;38322;53.108;6.308;2024-01-07T14:29:40;6.80;;;3.20;;
52396;SDS011;38322;53.108;6.308;2024-01-07T14:32:07;5.50;;;2.70;;
52396;SDS011;38322;53.108;6.308;2024-01-07T14:34:33;6.15;;;3.35;;
52396;SDS011;38322;53.108;6.308;2024-01-07T14:36:59;4.57;;;4.10;;
52396;SDS011;38322;53.108;6.308;2024-01-07T14:39:26;8.48;;;4.30;;
52396;SDS011;38322;53.108;6.308;2024-01-07T14:41:51;10.57;;;4.20;;
52396;SDS011;38322;53.108;6.308;2024-01-07T14:44:18;5.97;;;3.45;;
52396;SDS011;38322;53.108;6.308;2024-01-07T14:46:44;7.60;;;3.63;;
52396;SDS011;38322;53.108;6.308;2024-01-07T14:49:10;10.05;;;2.95;;
52396;SDS011;38322;53.108;6.308;2024-01-07T14:51:36;7.65;;;3.85;;
52396;SDS011;38322;53.108;6.308;2024-01-07T14:54:02;7.43;;;2.95;;
52396;SDS011;38322;53.108;6.308;2024-01-07T14:56:29;7.90;;;2.60;;
52396;SDS011;38322;53.108;6.308;2024-01-07T14:58:54;5.03;;;3.15;;
52396;SDS011;38322;53.108;6.308;2024-01-07T15:01:20;6.85;;;3.00;;
52396;SDS011;38322;53.108;6.308;2024-01-07T15:03:47;7.43;;;3.13;;
52396;SDS011;38322;53.108;6.308;2024-01-07T15:06:13;3.80;;;2.38;;
52396;SDS011;38322;53.108;6.308;2024-01-07T15:08:40;10.20;;;2.60;;
52396;SDS011;38322;53.108;6.308;2024-01-07T15:11:08;6.05;;;3.38;;
52396;SDS011;38322;53.108;6.308;2024-01-07T15:13:34;7.25;;;3.42;;
52396;SDS011;38322;53.108;6.308;2024-01-07T15:16:00;6.03;;;2.45;;
52396;SDS011;38322;53.108;6.308;2024-01-07T15:18:26;6.32;;;2.85;;
52396;SDS011;38322;53.108;6.308;2024-01-07T15:20:51;9.10;;;3.22;;
52396;SDS011;38322;53.108;6.308;2024-01-07T15:23:18;6.55;;;3.15;;
52396;SDS011;38322;53.108;6.308;2024-01-07T15:25:43;4.35;;;3.03;;
52396;SDS011;38322;53.108;6.308;2024-01-07T15:28:10;8.40;;;2.50;;
52396;SDS011;38322;53.108;6.308;2024-01-07T15:30:36;6.43;;;3.45;;
52396;SDS011;38322;53.108;6.308;2024-01-07T15:33:02;5.13;;;3.35;;
52396;SDS011;38322;53.108;6.308;2024-01-07T15:35:28;5.28;;;2.60;;
52396;SDS011;38322;53.108;6.308;2024-01-07T15:37:54;7.47;;;3.08;;
52396;SDS011;38322;53.108;6.308;2024-01-07T15:40:21;5.95;;;3.70;;
52396;SDS011;38322;53.108;6.308;2024-01-07T15:42:47;7.72;;;4.15;;
52396;SDS011;38322;53.108;6.308;2024-01-07T15:45:13;8.90;;;3.65;;
52396;SDS011;38322;53.108;6.308;2024-01-07T15:47:39;5.72;;;2.97;;
52396;SDS011;38322;53.108;6.308;2024-01-07T15:50:07;6.30;;;3.22;;
52396;SDS011;38322;53.108;6.308;2024-01-07T15:52:33;7.43;;;3.25;;
52396;SDS011;38322;53.108;6.308;2024-01-07T15:54:58;6.70;;;3.97;;
52396;SDS011;38322;53.108;6.308;2024-01-07T15:57:24;6.18;;;3.13;;
52396;SDS011;38322;53.108;6.308;2024-01-07T15:59:50;4.88;;;3.03;;
52396;SDS011;38322;53.108;6.308;2024-01-07T16:02:16;8.68;;;4.15;;
52396;SDS011;38322;53.108;6.308;2024-01-07T16:04:42;7.78;;;4.28;;
52396;SDS011;38322;53.108;6.308;2024-01-07T16:07:08;7.63;;;3.58;;
52396;SDS011;38322;53.108;6.308;2024-01-07T16:09:34;7.70;;;3.80;;
52396;SDS011;38322;53.108;6.308;2024-01-07T16:12:01;10.10;;;3.95;;
52396;SDS011;38322;53.108;6.308;2024-01-07T16:14:28;5.45;;;2.63;;
52396;SDS011;38322;53.108;6.308;2024-01-07T16:16:58;7.00;;;3.40;;
52396;SDS011;38322;53.108;6.308;2024-01-07T16:19:25;8.48;;;5.28;;
52396;SDS011;38322;53.108;6.308;2024-01-07T16:21:50;8.20;;;4.18;;
52396;SDS011;38322;53.108;6.308;2024-01-07T16:24:16;10.38;;;5.30;;
52396;SDS011;38322;53.108;6.308;2024-01-07T16:26:42;10.13;;;5.20;;
52396;SDS011;38322;53.108;6.308;2024-01-07T16:29:09;10.63;;;4.43;;
52396;SDS011;38322;53.108;6.308;2024-01-07T16:31:35;9.85;;;5.00;;
52396;SDS011;38322;53.108;6.308;2024-01-07T16:34:01;7.50;;;5.35;;
52396;SDS011;38322;53.108;6.308;2024-01-07T16:36:27;9.63;;;5.22;;
52396;SDS011;38322;53.108;6.308;2024-01-07T16:38:53;11.93;;;4.88;;
52396;SDS011;38322;53.108;6.308;2024-01-07T16:41:21;9.52;;;4.65;;
52396;SDS011;38322;53.108;6.308;2024-01-07T16:43:48;9.75;;;4.72;;
52396;SDS011;38322;53.108;6.308;2024-01-07T16:46:14;10.95;;;5.43;;
52396;SDS011;38322;53.108;6.308;2024-01-07T16:48:40;8.60;;;3.00;;
52396;SDS011;38322;53.108;6.308;2024-01-07T16:51:06;4.95;;;3.50;;
52396;SDS011;38322;53.108;6.308;2024-01-07T16:53:37;7.85;;;4.03;;
52396;SDS011;38322;53.108;6.308;2024-01-07T16:56:04;7.63;;;4.70;;
52396;SDS011;38322;53.108;6.308;2024-01-07T16:58:31;11.90;;;3.60;;
52396;SDS011;38322;53.108;6.308;2024-01-07T17:00:58;7.75;;;3.33;;
52396;SDS011;38322;53.108;6.308;2024-01-07T17:03:24;5.57;;;3.17;;
52396;SDS011;38322;53.108;6.308;2024-01-07T17:05:51;9.32;;;3.60;;
52396;SDS011;38322;53.108;6.308;2024-01-07T17:08:17;7.30;;;2.88;;
52396;SDS011;38322;53.108;6.308;2024-01-07T17:10:44;5.68;;;3.03;;
52396;SDS011;38322;53.108;6.308;2024-01-07T17:13:10;7.35;;;2.90;;
52396;SDS011;38322;53.108;6.308;2024-01-07T17:15:36;10.55;;;3.60;;
52396;SDS011;38322;53.108;6.308;2024-01-07T17:18:04;12.20;;;2.70;;
52396;SDS011;38322;53.108;6.308;2024-01-07T17:20:30;4.50;;;2.45;;
52396;SDS011;38322;53.108;6.308;2024-01-07T17:22:59;5.30;;;2.15;;
52396;SDS011;38322;53.108;6.308;2024-01-07T17:25:24;3.55;;;1.85;;
52396;SDS011;38322;53.108;6.308;2024-01-07T17:27:50;2.30;;;1.65;;
52396;SDS011;38322;53.108;6.308;2024-01-07T17:30:16;6.30;;;2.15;;
52396;SDS011;38322;53.108;6.308;2024-01-07T17:32:42;3.28;;;1.92;;
52396;SDS011;38322;53.108;6.308;2024-01-07T17:35:09;4.53;;;1.58;;
52396;SDS011;38322;53.108;6.308;2024-01-07T17:37:35;4.50;;;1.90;;
52396;SDS011;38322;53.108;6.308;2024-01-07T17:40:02;2.92;;;1.67;;
52396;SDS011;38322;53.108;6.308;2024-01-07T17:42:28;4.60;;;1.60;;
52396;SDS011;38322;53.108;6.308;2024-01-07T17:44:54;6.32;;;2.28;;
52396;SDS011;38322;53.108;6.308;2024-01-07T17:47:20;5.80;;;1.27;;
52396;SDS011;38322;53.108;6.308;2024-01-07T17:49:46;7.00;;;2.50;;
52396;SDS011;38322;53.108;6.308;2024-01-07T17:52:12;3.42;;;1.65;;
52396;SDS011;38322;53.108;6.308;2024-01-07T17:54:38;5.82;;;1.38;;
52396;SDS011;38322;53.108;6.308;2024-01-07T17:57:06;4.95;;;1.60;;
52396;SDS011;38322;53.108;6.308;2024-01-07T17:59:32;9.55;;;3.08;;
52396;SDS011;38322;53.108;6.308;2024-01-07T18:01:59;3.53;;;2.00;;
52396;SDS011;38322;53.108;6.308;2024-01-07T18:04:26;7.72;;;2.92;;
52396;SDS011;38322;53.108;6.308;2024-01-07T18:06:53;6.40;;;2.30;;
52396;SDS011;38322;53.108;6.308;2024-01-07T18:09:18;5.22;;;2.50;;
52396;SDS011;38322;53.108;6.308;2024-01-07T18:11:44;8.38;;;2.88;;
52396;SDS011;38322;53.108;6.308;2024-01-07T18:14:10;7.72;;;1.92;;
52396;SDS011;38322;53.108;6.308;2024-01-07T18:16:39;7.53;;;2.53;;
52396;SDS011;38322;53.108;6.308;2024-01-07T18:19:05;4.97;;;2.20;;
52396;SDS011;38322;53.108;6.308;2024-01-07T18:21:32;5.45;;;2.75;;
52396;SDS011;38322;53.108;6.308;2024-01-07T18:23:58;6.35;;;2.33;;
52396;SDS011;38322;53.108;6.308;2024-01-07T18:26:27;5.20;;;2.58;;
52396;SDS011;38322;53.108;6.308;2024-01-07T18:28:53;4.03;;;2.33;;
52396;SDS011;38322;53.108;6.308;2024-01-07T18:31:19;4.30;;;2.65;;
52396;SDS011;38322;53.108;6.308;2024-01-07T18:33:46;4.95;;;2.70;;
52396;SDS011;38322;53.108;6.308;2024-01-07T18:36:12;7.82;;;3.00;;
52396;SDS011;38322;53.108;6.308;2024-01-07T18:38:40;6.47;;;3.53;;
52396;SDS011;38322;53.108;6.308;2024-01-07T18:41:06;5.72;;;2.67;;
52396;SDS011;38322;53.108;6.308;2024-01-07T18:43:32;10.63;;;2.60;;
52396;SDS011;38322;53.108;6.308;2024-01-07T18:45:57;6.07;;;2.47;;
52396;SDS011;38322;53.108;6.308;2024-01-07T18:48:23;5.22;;;2.42;;
52396;SDS011;38322;53.108;6.308;2024-01-07T18:50:50;4.32;;;2.47;;
52396;SDS011;38322;53.108;6.308;2024-01-07T18:53:17;7.32;;;3.58;;
52396;SDS011;38322;53.108;6.308;2024-01-07T18:55:43;6.63;;;3.60;;
52396;SDS011;38322;53.108;6.308;2024-01-07T18:58:12;8.35;;;4.00;;
52396;SDS011;38322;53.108;6.308;2024-01-07T19:00:38;8.77;;;3.70;;
52396;SDS011;38322;53.108;6.308;2024-01-07T19:03:04;7.47;;;4.15;;
52396;SDS011;38322;53.108;6.308;2024-01-07T19:05:30;4.85;;;3.17;;
52396;SDS011;38322;53.108;6.308;2024-01-07T19:07:56;5.43;;;4.25;;
52396;SDS011;38322;53.108;6.308;2024-01-07T19:10:23;10.05;;;4.70;;
52396;SDS011;38322;53.108;6.308;2024-01-07T19:12:49;10.82;;;4.97;;
52396;SDS011;38322;53.108;6.308;2024-01-07T19:15:15;11.10;;;4.50;;
52396;SDS011;38322;53.108;6.308;2024-01-07T19:17:49;6.93;;;4.43;;
52396;SDS011;38322;53.108;6.308;2024-01-07T19:20:16;6.30;;;3.88;;
52396;SDS011;38322;53.108;6.308;2024-01-07T19:22:42;8.75;;;5.18;;
52396;SDS011;38322;53.108;6.308;2024-01-07T19:25:12;5.28;;;3.25;;
52396;SDS011;38322;53.108;6.308;2024-01-07T19:27:38;9.82;;;4.45;;
52396;SDS011;38322;53.108;6.308;2024-01-07T19:30:05;10.43;;;4.35;;
52396;SDS011;38322;53.108;6.308;2024-01-07T19:32:32;7.30;;;4.43;;
52396;SDS011;38322;53.108;6.308;2024-01-07T19:34:59;6.55;;;4.57;;
52396;SDS011;38322;53.108;6.308;2024-01-07T19:37:25;6.20;;;3.83;;
52396;SDS011;38322;53.108;6.308;2024-01-07T19:39:51;10.20;;;5.47;;
52396;SDS011;38322;53.108;6.308;2024-01-07T19:42:17;7.32;;;4.78;;
52396;SDS011;38322;53.108;6.308;2024-01-07T19:44:43;8.23;;;5.15;;
52396;SDS011;38322;53.108;6.308;2024-01-07T19:47:10;6.60;;;5.35;;
52396;SDS011;38322;53.108;6.308;2024-01-07T19:49:36;6.25;;;3.65;;
52396;SDS011;38322;53.108;6.308;2024-01-07T19:52:02;13.20;;;4.57;;
52396;SDS011;38322;53.108;6.308;2024-01-07T19:54:29;7.22;;;3.85;;
52396;SDS011;38322;53.108;6.308;2024-01-07T19:56:54;9.52;;;5.07;;
52396;SDS011;38322;53.108;6.308;2024-01-07T19:59:20;10.43;;;4.40;;
52396;SDS011;38322;53.108;6.308;2024-01-07T20:01:48;7.28;;;4.22;;
52396;SDS011;38322;53.108;6.308;2024-01-07T20:04:14;9.70;;;4.00;;
52396;SDS011;38322;53.108;6.308;2024-01-07T20:06:40;7.40;;;4.13;;
52396;SDS011;38322;53.108;6.308;2024-01-07T20:09:06;8.02;;;4.15;;
52396;SDS011;38322;53.108;6.308;2024-01-07T20:11:32;11.82;;;4.40;;
52396;SDS011;38322;53.108;6.308;2024-01-07T20:13:58;8.32;;;5.25;;
52396;SDS011;38322;53.108;6.308;2024-01-07T20:16:24;6.43;;;4.03;;
52396;SDS011;38322;53.108;6.308;2024-01-07T20:18:50;6.50;;;3.45;;
52396;SDS011;38322;53.108;6.308;2024-01-07T20:21:20;6.45;;;3.50;;
52396;SDS011;38322;53.108;6.308;2024-01-07T20:23:49;7.38;;;4.82;;
52396;SDS011;38322;53.108;6.308;2024-01-07T20:26:15;4.80;;;3.92;;
52396;SDS011;38322;53.108;6.308;2024-01-07T20:28:42;8.23;;;4.35;;
52396;SDS011;38322;53.108;6.308;2024-01-07T20:31:08;4.57;;;2.92;;
52396;SDS011;38322;53.108;6.308;2024-01-07T20:33:35;5.03;;;3.28;;
52396;SDS011;38322;53.108;6.308;2024-01-07T20:36:02;5.32;;;3.05;;
52396;SDS011;38322;53.108;6.308;2024-01-07T20:38:30;6.28;;;2.45;;
52396;SDS011;38322;53.108;6.308;2024-01-07T20:40:55;5.10;;;2.58;;
52396;SDS011;38322;53.108;6.308;2024-01-07T20:43:21;6.03;;;3.05;;
52396;SDS011;38322;53.108;6.308;2024-01-07T20:45:47;5.65;;;2.97;;
52396;SDS011;38322;53.108;6.308;2024-01-07T20:48:13;4.97;;;2.88;;
52396;SDS011;38322;53.108;6.308;2024-01-07T20:50:39;5.95;;;2.47;;